createdAt,value
2022-10-28T00:05:17.573Z,17.77
2022-10-28T00:11:08.699Z,17.73
2022-10-28T00:16:59.563Z,17.70
2022-10-28T00:22:46.256Z,17.67
2022-10-28T00:28:33.171Z,17.64
2022-10-28T00:34:21.450Z,17.58
2022-10-28T00:40:08.853Z,17.58
2022-10-28T00:45:56.472Z,17.53
2022-10-28T00:51:48.661Z,17.42
2022-10-28T00:57:37.568Z,17.37
2022-10-28T01:03:24.928Z,17.33
2022-10-28T01:09:11.553Z,17.29
2022-10-28T01:15:32.673Z,17.25
2022-10-28T01:21:34.606Z,17.19
2022-10-28T01:27:36.361Z,17.15
2022-10-28T01:33:38.984Z,17.07
2022-10-28T01:39:31.679Z,17.10
2022-10-28T01:45:21.869Z,16.98
2022-10-28T01:51:32.350Z,17.06
2022-10-28T01:57:20.856Z,17.15
2022-10-28T02:03:09.364Z,17.24
2022-10-28T02:09:31.487Z,17.16
2022-10-28T02:15:38.721Z,17.14
2022-10-28T02:21:47.711Z,17.04
2022-10-28T02:27:42.492Z,17.13
2022-10-28T02:33:34.342Z,17.02
2022-10-28T02:39:36.585Z,16.87
2022-10-28T02:45:28.392Z,17.18
2022-10-28T02:51:23.069Z,16.78
2022-10-28T02:57:19.668Z,16.79
2022-10-28T03:03:06.307Z,16.61
2022-10-28T03:08:53.828Z,16.56
2022-10-28T03:14:40.675Z,16.67
2022-10-28T03:20:27.640Z,16.66
2022-10-28T03:26:14.246Z,16.66
2022-10-28T03:32:00.899Z,16.21
2022-10-28T03:37:47.575Z,16.42
2022-10-28T03:43:34.185Z,16.60
2022-10-28T03:49:21.095Z,16.97
2022-10-28T03:55:08.180Z,16.94
2022-10-28T04:00:55.725Z,17.10
2022-10-28T04:06:42.446Z,17.16
2022-10-28T04:12:29.035Z,17.10
2022-10-28T04:18:15.710Z,17.15
2022-10-28T04:24:02.702Z,17.11
2022-10-28T04:29:49.578Z,17.13
2022-10-28T04:35:39.805Z,17.13
2022-10-28T04:41:26.687Z,17.14
2022-10-28T04:47:13.313Z,17.18
2022-10-28T04:53:00.093Z,17.25
2022-10-28T04:58:48.777Z,17.27
2022-10-28T05:04:35.345Z,17.30
2022-10-28T05:10:21.993Z,17.31
2022-10-28T05:16:08.810Z,17.36
2022-10-28T05:21:55.473Z,17.34
2022-10-28T05:27:42.213Z,17.29
2022-10-28T05:33:28.830Z,17.27
2022-10-28T05:39:15.526Z,17.33
2022-10-28T05:45:02.136Z,17.23
2022-10-28T05:50:48.800Z,17.21
2022-10-28T05:56:35.384Z,17.21
2022-10-28T06:02:22.007Z,17.22
2022-10-28T06:08:09.945Z,17.21
2022-10-28T06:13:55.010Z,17.21
2022-10-28T06:19:41.738Z,17.13
2022-10-28T06:25:29.432Z,17.04
2022-10-28T06:31:16.046Z,17.11
2022-10-28T06:37:02.694Z,17.19
2022-10-28T06:43:01.145Z,17.22
2022-10-28T06:48:49.331Z,17.31
2022-10-28T06:54:37.461Z,17.35
2022-10-28T07:00:24.869Z,17.29
2022-10-28T07:06:11.836Z,17.34
2022-10-28T07:12:04.906Z,17.36
2022-10-28T07:17:56.734Z,17.52
2022-10-28T07:23:43.626Z,17.54
2022-10-28T07:29:30.406Z,17.68
2022-10-28T07:35:17.337Z,17.72
2022-10-28T07:41:06.155Z,17.79
2022-10-28T07:46:55.768Z,17.94
2022-10-28T07:52:47.356Z,18.11
2022-10-28T07:58:34.189Z,18.26
2022-10-28T08:04:20.982Z,18.36
2022-10-28T08:10:08.199Z,18.49
2022-10-28T08:15:55.801Z,18.64
2022-10-28T08:21:42.601Z,18.68
2022-10-28T08:27:29.264Z,18.63
2022-10-28T08:33:18.600Z,18.52
2022-10-28T08:39:06.054Z,18.44
2022-10-28T08:45:00.975Z,18.51
2022-10-28T08:50:53.391Z,18.68
2022-10-28T08:56:46.164Z,18.51
2022-10-28T09:02:52.596Z,18.67
2022-10-28T09:08:48.598Z,18.83
2022-10-28T09:14:38.510Z,18.88
2022-10-28T09:20:43.742Z,18.75
2022-10-28T09:26:44.265Z,18.77
2022-10-28T09:33:03.457Z,18.86
2022-10-28T09:38:53.792Z,18.92
2022-10-28T09:44:49.721Z,18.87
2022-10-28T09:50:39.685Z,18.83
2022-10-28T09:56:28.659Z,18.80
2022-10-28T10:02:36.881Z,18.72
2022-10-28T10:15:40.062Z,18.62
2022-10-28T10:21:54.913Z,19.01
2022-10-28T10:27:45.941Z,19.16
2022-10-28T10:33:45.442Z,19.67
2022-10-28T10:39:40.146Z,19.69
2022-10-28T10:45:29.315Z,19.33
2022-10-28T10:51:30.551Z,19.09
2022-10-28T10:57:21.150Z,19.40
2022-10-28T11:03:21.591Z,19.82
2022-10-28T11:09:34.951Z,20.15
2022-10-28T11:15:28.314Z,20.16
2022-10-28T11:21:43.534Z,20.52
2022-10-28T11:28:07.869Z,20.52
2022-10-28T11:34:19.658Z,20.76
2022-10-28T11:40:22.764Z,20.87
2022-10-28T11:46:20.549Z,20.65
2022-10-28T11:52:29.119Z,20.12
2022-10-28T11:58:49.284Z,19.81
2022-10-28T12:05:03.882Z,19.58
2022-10-28T12:11:21.303Z,19.65
2022-10-28T12:17:20.357Z,19.60
2022-10-28T12:23:13.971Z,19.78
2022-10-28T12:29:05.519Z,20.08
2022-10-28T12:35:08.378Z,20.23
2022-10-28T12:41:16.251Z,19.94
2022-10-28T12:47:14.477Z,19.72
2022-10-28T12:53:06.094Z,19.78
2022-10-28T12:59:06.458Z,19.96
2022-10-28T13:04:53.839Z,19.79
2022-10-28T13:10:48.534Z,19.90
2022-10-28T13:17:01.377Z,19.69
2022-10-28T13:22:51.223Z,19.75
2022-10-28T13:28:46.075Z,20.07
2022-10-28T13:34:40.595Z,20.22
2022-10-28T13:40:58.279Z,20.15
2022-10-28T13:46:57.348Z,20.22
2022-10-28T13:52:46.589Z,20.17
2022-10-28T13:58:34.115Z,19.92
2022-10-28T14:04:26.327Z,19.96
2022-10-28T14:10:26.793Z,20.03
2022-10-28T14:16:33.070Z,20.08
2022-10-28T14:22:36.794Z,19.86
2022-10-28T14:28:29.839Z,19.83
2022-10-28T14:34:17.970Z,19.70
2022-10-28T14:40:23.556Z,19.99
2022-10-28T14:46:28.106Z,20.01
2022-10-28T14:52:18.522Z,20.11
2022-10-28T14:58:30.092Z,19.74
2022-10-28T15:04:22.828Z,19.68
2022-10-28T15:10:31.216Z,19.52
2022-10-28T15:16:24.374Z,19.50
2022-10-28T15:22:14.428Z,19.44
2022-10-28T15:28:02.059Z,19.52
2022-10-28T15:33:50.041Z,19.14
2022-10-28T15:39:40.952Z,18.95
2022-10-28T15:45:30.402Z,18.98
2022-10-28T15:51:20.930Z,18.98
2022-10-28T15:57:32.171Z,18.67
2022-10-28T16:03:43.095Z,18.76
2022-10-28T16:09:34.587Z,18.55
2022-10-28T16:15:23.730Z,18.49
2022-10-28T16:22:16.018Z,18.47
2022-10-28T16:28:24.315Z,18.32
2022-10-28T16:34:34.919Z,18.27
2022-10-28T16:40:50.471Z,17.82
2022-10-28T16:46:53.607Z,17.72
2022-10-28T16:52:41.158Z,17.60
2022-10-28T16:58:38.517Z,17.56
2022-10-28T17:04:29.784Z,17.36
2022-10-28T17:10:18.584Z,17.22
2022-10-28T17:16:05.679Z,17.16
2022-10-28T17:21:52.399Z,16.90
2022-10-28T17:27:39.257Z,16.77
2022-10-28T17:33:25.969Z,16.54
2022-10-28T17:39:18.619Z,16.41
2022-10-28T17:45:08.222Z,16.29
2022-10-28T17:50:55.398Z,16.24
2022-10-28T17:56:43.326Z,16.09
2022-10-28T18:02:30.027Z,15.99
2022-10-28T18:08:17.117Z,15.86
2022-10-28T18:14:04.683Z,15.80
2022-10-28T18:19:57.844Z,15.72
2022-10-28T18:25:44.434Z,15.77
2022-10-28T18:31:37.009Z,15.67
2022-10-28T18:37:23.651Z,15.45
2022-10-28T18:43:12.600Z,15.60
2022-10-28T18:54:46.454Z,15.41
2022-10-28T19:00:34.968Z,15.53
2022-10-28T19:06:26.299Z,15.48
2022-10-28T19:12:13.139Z,15.40
2022-10-28T19:18:00.045Z,15.32
2022-10-28T19:23:46.931Z,15.31
2022-10-28T19:29:33.750Z,15.20
2022-10-28T19:35:21.922Z,15.16
2022-10-28T19:41:18.404Z,15.09
2022-10-28T19:47:05.125Z,14.89
2022-10-28T19:52:52.143Z,14.87
2022-10-28T19:58:38.838Z,14.68
2022-10-28T20:04:29.504Z,14.43
2022-10-28T20:10:16.198Z,14.41
2022-10-28T20:16:12.358Z,14.42
2022-10-28T20:21:59.062Z,14.53
2022-10-28T20:27:48.092Z,14.64
2022-10-28T20:33:36.699Z,14.25
2022-10-28T20:39:23.639Z,14.58
2022-10-28T20:45:10.497Z,14.53
2022-10-28T20:51:01.877Z,14.24
2022-10-28T20:56:48.771Z,13.96
2022-10-28T21:02:36.671Z,14.36
2022-10-28T21:08:26.683Z,14.58
2022-10-28T21:14:13.456Z,14.49
2022-10-28T21:26:00.615Z,14.47
2022-10-28T21:31:47.425Z,14.48
2022-10-28T21:37:34.338Z,14.47
2022-10-28T21:43:22.529Z,14.44
2022-10-28T21:49:09.834Z,14.34
2022-10-28T21:54:56.743Z,14.24
2022-10-28T22:00:45.413Z,14.15
2022-10-28T22:06:32.098Z,14.07
2022-10-28T22:12:19.572Z,13.98
2022-10-28T22:18:09.081Z,13.99
2022-10-28T22:23:56.173Z,14.13
2022-10-28T22:29:42.901Z,14.20
2022-10-28T22:35:29.717Z,14.17
2022-10-28T22:41:29.972Z,14.18
2022-10-28T22:47:17.041Z,14.12
2022-10-28T22:53:06.495Z,14.04
2022-10-28T22:58:56.943Z,14.12
2022-10-28T23:04:45.085Z,14.15
2022-10-28T23:10:32.519Z,13.90
2022-10-28T23:16:20.000Z,14.01
2022-10-28T23:22:07.083Z,14.11
2022-10-28T23:27:54.219Z,14.00
2022-10-28T23:33:43.937Z,14.12
2022-10-28T23:39:30.992Z,13.97
2022-10-28T23:45:17.790Z,13.86
2022-10-28T23:51:04.906Z,13.88
2022-10-28T23:56:52.058Z,14.05
